Bda Shangai, Puerto Rico
Current Conditions -  °F | °C
As of 10:56 AM on Friday 31 Oct 2014 (Local Time) from TJSJ Reporting Station
Scattered Clouds Scattered Clouds  
Wind Chill: 87°   Ceiling: Unl
Heat Index: 101°   Visibility: 10mi
Dew Point: 79°   Wind: 12mph
Humidity: 77%   Direction: 60°ENE
Pressure: 29.9"   Gusts: NA
Location:  18.3817°N, 65.8302°W
Report Text: TJSJ 311456Z 06010KT 10SM FEW032 SCT050 31/26 A2990 RMK AO2 SLP123 SHRA DSNT SE T03060261 50010
Loading
Personal Weather Stations






























Interactive Weather Map
Tropical Storm Tracking
New forecast layout! Learn more

10-Day Weather Forecast

Advertisements
Track Severe Weather on mobile